Manda, Texas
Current Conditions -  °F | °C
As of 12:55 AM on Thursday 27 Nov 2014 (Local Time) from KEDC Reporting Station
Clear Clear  
Wind Chill: 42°   Ceiling: Unl
Heat Index: 46°   Visibility: 10mi
Dew Point: 37°   Wind: 8mph
Humidity: 71%   Direction: 10°N
Pressure: 30.38"   Gusts: NA
Location:  30.352°N, 97.5205°W
Report Text: KEDC 270655Z AUTO 01007KT 10SM CLR 08/03 A3038 RMK AO2
Loading
Personal Weather Stations






























Interactive Weather Map New forecast layout! Learn more

10-Day Weather Forecast

Advertisements
Track Severe Weather on mobile